sensor_id;sensor_type;location;lat;lon;timestamp;P1;durP1;ratioP1;P2;durP2;ratioP2
26391;SDS011;14572;43.120;1.178;2023-02-03T00:00:06;6.43;;;2.80;;
26391;SDS011;14572;43.120;1.178;2023-02-03T00:02:34;6.37;;;3.20;;
26391;SDS011;14572;43.120;1.178;2023-02-03T00:05:01;6.70;;;2.90;;
26391;SDS011;14572;43.120;1.178;2023-02-03T00:07:28;7.63;;;3.40;;
26391;SDS011;14572;43.120;1.178;2023-02-03T00:09:56;11.27;;;3.50;;
26391;SDS011;14572;43.120;1.178;2023-02-03T00:12:23;8.13;;;3.03;;
26391;SDS011;14572;43.120;1.178;2023-02-03T00:14:51;8.03;;;3.00;;
26391;SDS011;14572;43.120;1.178;2023-02-03T00:17:18;10.37;;;2.83;;
26391;SDS011;14572;43.120;1.178;2023-02-03T00:19:45;13.77;;;3.50;;
26391;SDS011;14572;43.120;1.178;2023-02-03T00:22:13;10.73;;;3.13;;
26391;SDS011;14572;43.120;1.178;2023-02-03T00:24:40;9.77;;;2.97;;
26391;SDS011;14572;43.120;1.178;2023-02-03T00:27:07;9.43;;;3.27;;
26391;SDS011;14572;43.120;1.178;2023-02-03T00:29:34;11.23;;;3.40;;
26391;SDS011;14572;43.120;1.178;2023-02-03T00:32:03;9.20;;;3.10;;
26391;SDS011;14572;43.120;1.178;2023-02-03T00:34:31;6.57;;;3.00;;
26391;SDS011;14572;43.120;1.178;2023-02-03T00:36:58;6.13;;;2.87;;
26391;SDS011;14572;43.120;1.178;2023-02-03T00:39:24;10.70;;;3.00;;
26391;SDS011;14572;43.120;1.178;2023-02-03T00:41:52;11.67;;;2.97;;
26391;SDS011;14572;43.120;1.178;2023-02-03T00:44:18;9.37;;;3.33;;
26391;SDS011;14572;43.120;1.178;2023-02-03T00:46:45;8.40;;;3.10;;
26391;SDS011;14572;43.120;1.178;2023-02-03T00:49:14;10.33;;;3.30;;
26391;SDS011;14572;43.120;1.178;2023-02-03T00:51:41;7.33;;;2.93;;
26391;SDS011;14572;43.120;1.178;2023-02-03T00:54:08;8.13;;;3.00;;
26391;SDS011;14572;43.120;1.178;2023-02-03T00:56:35;6.77;;;3.17;;
26391;SDS011;14572;43.120;1.178;2023-02-03T00:59:02;5.73;;;2.80;;
26391;SDS011;14572;43.120;1.178;2023-02-03T01:01:30;10.13;;;2.97;;
26391;SDS011;14572;43.120;1.178;2023-02-03T01:03:57;8.20;;;3.17;;
26391;SDS011;14572;43.120;1.178;2023-02-03T01:06:25;6.00;;;2.83;;
26391;SDS011;14572;43.120;1.178;2023-02-03T01:08:53;7.67;;;3.47;;
26391;SDS011;14572;43.120;1.178;2023-02-03T01:11:21;4.50;;;3.00;;
26391;SDS011;14572;43.120;1.178;2023-02-03T01:13:49;9.40;;;3.03;;
26391;SDS011;14572;43.120;1.178;2023-02-03T01:16:17;10.23;;;2.90;;
26391;SDS011;14572;43.120;1.178;2023-02-03T01:18:45;8.77;;;2.90;;
26391;SDS011;14572;43.120;1.178;2023-02-03T01:21:14;13.20;;;3.27;;
26391;SDS011;14572;43.120;1.178;2023-02-03T01:23:43;9.53;;;3.57;;
26391;SDS011;14572;43.120;1.178;2023-02-03T01:26:11;7.13;;;2.77;;
26391;SDS011;14572;43.120;1.178;2023-02-03T01:28:40;11.37;;;3.17;;
26391;SDS011;14572;43.120;1.178;2023-02-03T01:31:08;11.90;;;3.07;;
26391;SDS011;14572;43.120;1.178;2023-02-03T01:33:40;11.87;;;3.20;;
26391;SDS011;14572;43.120;1.178;2023-02-03T01:36:10;6.90;;;2.97;;
26391;SDS011;14572;43.120;1.178;2023-02-03T01:38:38;15.30;;;3.40;;
26391;SDS011;14572;43.120;1.178;2023-02-03T01:41:07;7.90;;;3.60;;
26391;SDS011;14572;43.120;1.178;2023-02-03T01:43:36;9.43;;;3.40;;
26391;SDS011;14572;43.120;1.178;2023-02-03T01:46:06;7.83;;;3.10;;
26391;SDS011;14572;43.120;1.178;2023-02-03T01:48:42;7.63;;;2.97;;
26391;SDS011;14572;43.120;1.178;2023-02-03T01:51:10;10.43;;;3.27;;
26391;SDS011;14572;43.120;1.178;2023-02-03T01:53:37;12.13;;;3.50;;
26391;SDS011;14572;43.120;1.178;2023-02-03T01:56:05;6.80;;;2.70;;
26391;SDS011;14572;43.120;1.178;2023-02-03T01:58:34;8.83;;;3.33;;
26391;SDS011;14572;43.120;1.178;2023-02-03T02:01:03;8.77;;;3.40;;
26391;SDS011;14572;43.120;1.178;2023-02-03T02:03:30;11.10;;;3.50;;
26391;SDS011;14572;43.120;1.178;2023-02-03T02:05:59;10.93;;;3.43;;
26391;SDS011;14572;43.120;1.178;2023-02-03T02:08:29;9.97;;;3.60;;
26391;SDS011;14572;43.120;1.178;2023-02-03T02:10:56;11.47;;;3.17;;
26391;SDS011;14572;43.120;1.178;2023-02-03T02:13:26;7.47;;;3.37;;
26391;SDS011;14572;43.120;1.178;2023-02-03T02:15:56;7.03;;;2.80;;
26391;SDS011;14572;43.120;1.178;2023-02-03T02:18:33;8.27;;;3.27;;
26391;SDS011;14572;43.120;1.178;2023-02-03T02:21:20;8.33;;;3.20;;
26391;SDS011;14572;43.120;1.178;2023-02-03T02:23:55;6.93;;;2.93;;
26391;SDS011;14572;43.120;1.178;2023-02-03T02:29:25;5.00;;;2.90;;
26391;SDS011;14572;43.120;1.178;2023-02-03T02:32:05;6.30;;;2.97;;
26391;SDS011;14572;43.120;1.178;2023-02-03T02:34:49;8.43;;;3.50;;
26391;SDS011;14572;43.120;1.178;2023-02-03T02:37:24;9.50;;;3.37;;
26391;SDS011;14572;43.120;1.178;2023-02-03T02:39:55;14.17;;;3.63;;
26391;SDS011;14572;43.120;1.178;2023-02-03T02:42:25;8.70;;;2.97;;
26391;SDS011;14572;43.120;1.178;2023-02-03T02:44:58;6.27;;;3.23;;
26391;SDS011;14572;43.120;1.178;2023-02-03T02:47:34;5.57;;;2.73;;
26391;SDS011;14572;43.120;1.178;2023-02-03T02:50:03;10.07;;;3.53;;
26391;SDS011;14572;43.120;1.178;2023-02-03T02:52:33;17.87;;;3.90;;
26391;SDS011;14572;43.120;1.178;2023-02-03T02:55:02;13.33;;;3.03;;
26391;SDS011;14572;43.120;1.178;2023-02-03T02:57:33;6.50;;;3.50;;
26391;SDS011;14572;43.120;1.178;2023-02-03T03:00:02;8.27;;;3.17;;
26391;SDS011;14572;43.120;1.178;2023-02-03T03:02:30;6.30;;;3.07;;
26391;SDS011;14572;43.120;1.178;2023-02-03T03:05:00;6.93;;;3.17;;
26391;SDS011;14572;43.120;1.178;2023-02-03T03:07:29;8.17;;;3.70;;
26391;SDS011;14572;43.120;1.178;2023-02-03T03:09:59;8.93;;;3.67;;
26391;SDS011;14572;43.120;1.178;2023-02-03T03:12:28;10.27;;;3.10;;
26391;SDS011;14572;43.120;1.178;2023-02-03T03:14:57;8.50;;;3.30;;
26391;SDS011;14572;43.120;1.178;2023-02-03T03:17:27;9.90;;;2.97;;
26391;SDS011;14572;43.120;1.178;2023-02-03T03:19:57;6.23;;;3.10;;
26391;SDS011;14572;43.120;1.178;2023-02-03T03:22:31;9.20;;;2.67;;
26391;SDS011;14572;43.120;1.178;2023-02-03T03:25:02;6.87;;;3.43;;
26391;SDS011;14572;43.120;1.178;2023-02-03T03:27:33;8.77;;;3.33;;
26391;SDS011;14572;43.120;1.178;2023-02-03T03:30:04;6.07;;;3.23;;
26391;SDS011;14572;43.120;1.178;2023-02-03T03:32:33;7.17;;;2.77;;
26391;SDS011;14572;43.120;1.178;2023-02-03T03:35:02;10.43;;;2.87;;
26391;SDS011;14572;43.120;1.178;2023-02-03T03:37:30;6.03;;;2.60;;
26391;SDS011;14572;43.120;1.178;2023-02-03T03:40:01;8.10;;;3.00;;
26391;SDS011;14572;43.120;1.178;2023-02-03T03:42:34;8.80;;;2.73;;
26391;SDS011;14572;43.120;1.178;2023-02-03T03:45:06;6.70;;;2.80;;
26391;SDS011;14572;43.120;1.178;2023-02-03T03:47:36;8.67;;;3.20;;
26391;SDS011;14572;43.120;1.178;2023-02-03T03:50:08;7.67;;;3.37;;
26391;SDS011;14572;43.120;1.178;2023-02-03T03:52:37;9.03;;;3.10;;
26391;SDS011;14572;43.120;1.178;2023-02-03T03:55:06;7.57;;;2.80;;
26391;SDS011;14572;43.120;1.178;2023-02-03T03:57:35;5.37;;;3.10;;
26391;SDS011;14572;43.120;1.178;2023-02-03T04:00:06;8.30;;;3.20;;
26391;SDS011;14572;43.120;1.178;2023-02-03T04:02:35;7.83;;;3.17;;
26391;SDS011;14572;43.120;1.178;2023-02-03T04:05:05;6.27;;;3.00;;
26391;SDS011;14572;43.120;1.178;2023-02-03T04:07:37;9.20;;;2.97;;
26391;SDS011;14572;43.120;1.178;2023-02-03T04:10:05;6.83;;;2.63;;
26391;SDS011;14572;43.120;1.178;2023-02-03T04:12:46;8.73;;;3.03;;
26391;SDS011;14572;43.120;1.178;2023-02-03T04:15:13;6.43;;;3.03;;
26391;SDS011;14572;43.120;1.178;2023-02-03T04:17:40;5.50;;;2.90;;
26391;SDS011;14572;43.120;1.178;2023-02-03T04:20:10;7.03;;;3.00;;
26391;SDS011;14572;43.120;1.178;2023-02-03T04:22:37;9.00;;;3.30;;
26391;SDS011;14572;43.120;1.178;2023-02-03T04:25:05;10.70;;;3.20;;
26391;SDS011;14572;43.120;1.178;2023-02-03T04:27:32;5.43;;;2.53;;
26391;SDS011;14572;43.120;1.178;2023-02-03T04:30:00;6.33;;;2.53;;
26391;SDS011;14572;43.120;1.178;2023-02-03T04:32:27;12.90;;;3.30;;
26391;SDS011;14572;43.120;1.178;2023-02-03T04:34:55;4.20;;;2.43;;
26391;SDS011;14572;43.120;1.178;2023-02-03T04:37:23;11.70;;;3.00;;
26391;SDS011;14572;43.120;1.178;2023-02-03T04:39:51;7.50;;;3.00;;
26391;SDS011;14572;43.120;1.178;2023-02-03T04:42:19;6.03;;;2.87;;
26391;SDS011;14572;43.120;1.178;2023-02-03T04:44:46;6.57;;;2.60;;
26391;SDS011;14572;43.120;1.178;2023-02-03T04:47:13;6.47;;;3.10;;
26391;SDS011;14572;43.120;1.178;2023-02-03T04:49:40;8.43;;;3.00;;
26391;SDS011;14572;43.120;1.178;2023-02-03T04:52:08;6.47;;;2.70;;
26391;SDS011;14572;43.120;1.178;2023-02-03T04:54:36;8.43;;;3.03;;
26391;SDS011;14572;43.120;1.178;2023-02-03T04:57:03;6.20;;;2.63;;
26391;SDS011;14572;43.120;1.178;2023-02-03T04:59:30;6.27;;;3.17;;
26391;SDS011;14572;43.120;1.178;2023-02-03T05:01:57;9.67;;;3.30;;
26391;SDS011;14572;43.120;1.178;2023-02-03T05:04:27;6.27;;;3.00;;
26391;SDS011;14572;43.120;1.178;2023-02-03T05:06:54;10.77;;;3.90;;
26391;SDS011;14572;43.120;1.178;2023-02-03T05:09:21;9.10;;;3.30;;
26391;SDS011;14572;43.120;1.178;2023-02-03T05:11:50;6.93;;;2.80;;
26391;SDS011;14572;43.120;1.178;2023-02-03T05:14:17;10.97;;;3.30;;
26391;SDS011;14572;43.120;1.178;2023-02-03T05:16:44;11.20;;;3.20;;
26391;SDS011;14572;43.120;1.178;2023-02-03T05:19:11;5.20;;;3.00;;
26391;SDS011;14572;43.120;1.178;2023-02-03T05:21:38;6.90;;;2.60;;
26391;SDS011;14572;43.120;1.178;2023-02-03T05:24:06;6.37;;;3.30;;
26391;SDS011;14572;43.120;1.178;2023-02-03T05:26:33;8.93;;;3.37;;
26391;SDS011;14572;43.120;1.178;2023-02-03T05:29:02;7.50;;;3.10;;
26391;SDS011;14572;43.120;1.178;2023-02-03T05:31:29;12.57;;;3.27;;
26391;SDS011;14572;43.120;1.178;2023-02-03T05:33:57;10.07;;;3.60;;
26391;SDS011;14572;43.120;1.178;2023-02-03T05:36:24;6.17;;;3.27;;
26391;SDS011;14572;43.120;1.178;2023-02-03T05:38:51;6.23;;;3.33;;
26391;SDS011;14572;43.120;1.178;2023-02-03T05:41:18;11.00;;;3.60;;
26391;SDS011;14572;43.120;1.178;2023-02-03T05:44:04;7.37;;;3.10;;
26391;SDS011;14572;43.120;1.178;2023-02-03T05:46:31;6.70;;;2.77;;
26391;SDS011;14572;43.120;1.178;2023-02-03T05:48:58;5.90;;;2.93;;
26391;SDS011;14572;43.120;1.178;2023-02-03T05:51:25;6.37;;;3.13;;
26391;SDS011;14572;43.120;1.178;2023-02-03T05:53:52;9.07;;;3.50;;
26391;SDS011;14572;43.120;1.178;2023-02-03T05:56:19;6.67;;;2.77;;
26391;SDS011;14572;43.120;1.178;2023-02-03T05:58:46;9.90;;;3.50;;
26391;SDS011;14572;43.120;1.178;2023-02-03T06:01:16;4.97;;;3.27;;
26391;SDS011;14572;43.120;1.178;2023-02-03T06:03:44;8.23;;;3.37;;
26391;SDS011;14572;43.120;1.178;2023-02-03T06:06:11;5.23;;;3.27;;
26391;SDS011;14572;43.120;1.178;2023-02-03T06:08:38;7.07;;;3.87;;
26391;SDS011;14572;43.120;1.178;2023-02-03T06:11:05;9.10;;;3.47;;
26391;SDS011;14572;43.120;1.178;2023-02-03T06:13:32;7.23;;;2.90;;
26391;SDS011;14572;43.120;1.178;2023-02-03T06:15:59;5.27;;;3.00;;
26391;SDS011;14572;43.120;1.178;2023-02-03T06:18:27;12.40;;;3.13;;
26391;SDS011;14572;43.120;1.178;2023-02-03T06:20:55;7.27;;;3.10;;
26391;SDS011;14572;43.120;1.178;2023-02-03T06:23:22;5.20;;;3.07;;
26391;SDS011;14572;43.120;1.178;2023-02-03T06:25:49;5.03;;;2.90;;
26391;SDS011;14572;43.120;1.178;2023-02-03T06:28:16;5.17;;;2.80;;
26391;SDS011;14572;43.120;1.178;2023-02-03T06:30:43;6.03;;;2.90;;
26391;SDS011;14572;43.120;1.178;2023-02-03T06:33:10;5.70;;;3.03;;
26391;SDS011;14572;43.120;1.178;2023-02-03T06:35:39;11.03;;;3.30;;
26391;SDS011;14572;43.120;1.178;2023-02-03T06:38:06;4.17;;;2.50;;
26391;SDS011;14572;43.120;1.178;2023-02-03T06:40:33;7.43;;;2.90;;
26391;SDS011;14572;43.120;1.178;2023-02-03T06:43:00;8.17;;;3.87;;
26391;SDS011;14572;43.120;1.178;2023-02-03T06:45:27;10.80;;;3.13;;
26391;SDS011;14572;43.120;1.178;2023-02-03T06:47:54;5.73;;;2.70;;
26391;SDS011;14572;43.120;1.178;2023-02-03T06:50:21;7.67;;;3.30;;
26391;SDS011;14572;43.120;1.178;2023-02-03T06:52:50;5.60;;;3.23;;
26391;SDS011;14572;43.120;1.178;2023-02-03T06:55:17;5.90;;;2.97;;
26391;SDS011;14572;43.120;1.178;2023-02-03T06:57:45;5.83;;;3.33;;
26391;SDS011;14572;43.120;1.178;2023-02-03T07:00:13;10.53;;;3.80;;
26391;SDS011;14572;43.120;1.178;2023-02-03T07:02:41;10.27;;;3.07;;
26391;SDS011;14572;43.120;1.178;2023-02-03T07:05:08;4.60;;;2.67;;
26391;SDS011;14572;43.120;1.178;2023-02-03T07:07:36;5.30;;;3.40;;
26391;SDS011;14572;43.120;1.178;2023-02-03T07:10:06;6.80;;;3.40;;
26391;SDS011;14572;43.120;1.178;2023-02-03T07:12:34;6.50;;;3.10;;
26391;SDS011;14572;43.120;1.178;2023-02-03T07:15:01;6.03;;;3.10;;
26391;SDS011;14572;43.120;1.178;2023-02-03T07:17:28;5.07;;;2.57;;
26391;SDS011;14572;43.120;1.178;2023-02-03T07:19:55;6.67;;;3.40;;
26391;SDS011;14572;43.120;1.178;2023-02-03T07:22:23;5.63;;;2.67;;
26391;SDS011;14572;43.120;1.178;2023-02-03T07:24:50;6.63;;;2.83;;
26391;SDS011;14572;43.120;1.178;2023-02-03T07:27:18;9.60;;;2.73;;
26391;SDS011;14572;43.120;1.178;2023-02-03T07:29:45;5.60;;;2.63;;
26391;SDS011;14572;43.120;1.178;2023-02-03T07:32:12;6.87;;;3.07;;
26391;SDS011;14572;43.120;1.178;2023-02-03T07:34:40;14.23;;;4.17;;
26391;SDS011;14572;43.120;1.178;2023-02-03T07:37:07;6.47;;;3.50;;
26391;SDS011;14572;43.120;1.178;2023-02-03T07:39:34;8.90;;;3.50;;
26391;SDS011;14572;43.120;1.178;2023-02-03T07:42:00;8.47;;;3.30;;
26391;SDS011;14572;43.120;1.178;2023-02-03T07:44:29;7.30;;;2.87;;
26391;SDS011;14572;43.120;1.178;2023-02-03T07:46:56;7.33;;;3.23;;
26391;SDS011;14572;43.120;1.178;2023-02-03T07:49:23;5.67;;;2.70;;
26391;SDS011;14572;43.120;1.178;2023-02-03T07:51:50;8.53;;;2.90;;
26391;SDS011;14572;43.120;1.178;2023-02-03T07:54:17;6.67;;;3.00;;
26391;SDS011;14572;43.120;1.178;2023-02-03T07:56:44;11.57;;;2.93;;
26391;SDS011;14572;43.120;1.178;2023-02-03T07:59:11;6.93;;;2.80;;
26391;SDS011;14572;43.120;1.178;2023-02-03T08:01:40;5.70;;;2.50;;
26391;SDS011;14572;43.120;1.178;2023-02-03T08:04:07;5.87;;;2.70;;
26391;SDS011;14572;43.120;1.178;2023-02-03T08:06:36;3.80;;;2.33;;
26391;SDS011;14572;43.120;1.178;2023-02-03T08:09:03;8.10;;;2.90;;
26391;SDS011;14572;43.120;1.178;2023-02-03T08:11:30;7.97;;;2.70;;
26391;SDS011;14572;43.120;1.178;2023-02-03T08:13:57;8.50;;;3.13;;
26391;SDS011;14572;43.120;1.178;2023-02-03T08:16:24;9.80;;;3.63;;
26391;SDS011;14572;43.120;1.178;2023-02-03T08:18:53;10.93;;;4.63;;
26391;SDS011;14572;43.120;1.178;2023-02-03T08:21:20;15.67;;;5.73;;
26391;SDS011;14572;43.120;1.178;2023-02-03T08:23:47;8.17;;;4.70;;
26391;SDS011;14572;43.120;1.178;2023-02-03T08:26:14;13.43;;;6.30;;
26391;SDS011;14572;43.120;1.178;2023-02-03T08:28:41;10.63;;;5.27;;
26391;SDS011;14572;43.120;1.178;2023-02-03T08:31:08;15.30;;;6.57;;
26391;SDS011;14572;43.120;1.178;2023-02-03T08:33:36;9.70;;;5.00;;
26391;SDS011;14572;43.120;1.178;2023-02-03T08:36:05;10.27;;;5.30;;
26391;SDS011;14572;43.120;1.178;2023-02-03T08:38:32;11.97;;;5.80;;
26391;SDS011;14572;43.120;1.178;2023-02-03T08:40:59;9.37;;;5.37;;
26391;SDS011;14572;43.120;1.178;2023-02-03T08:43:26;8.60;;;3.97;;
26391;SDS011;14572;43.120;1.178;2023-02-03T08:45:53;8.97;;;3.87;;
26391;SDS011;14572;43.120;1.178;2023-02-03T08:48:20;8.43;;;3.80;;
26391;SDS011;14572;43.120;1.178;2023-02-03T08:50:47;8.13;;;4.03;;
26391;SDS011;14572;43.120;1.178;2023-02-03T08:53:18;7.33;;;4.70;;
26391;SDS011;14572;43.120;1.178;2023-02-03T08:55:45;6.30;;;3.83;;
26391;SDS011;14572;43.120;1.178;2023-02-03T08:58:12;8.03;;;4.60;;
26391;SDS011;14572;43.120;1.178;2023-02-03T09:00:39;11.40;;;4.60;;
26391;SDS011;14572;43.120;1.178;2023-02-03T09:03:06;11.23;;;4.97;;
26391;SDS011;14572;43.120;1.178;2023-02-03T09:05:34;11.10;;;4.57;;
26391;SDS011;14572;43.120;1.178;2023-02-03T09:08:01;16.27;;;7.40;;
26391;SDS011;14572;43.120;1.178;2023-02-03T09:10:29;16.87;;;7.20;;
26391;SDS011;14572;43.120;1.178;2023-02-03T09:12:56;36.67;;;14.90;;
26391;SDS011;14572;43.120;1.178;2023-02-03T09:15:23;12.37;;;4.70;;
26391;SDS011;14572;43.120;1.178;2023-02-03T09:17:51;13.87;;;4.27;;
26391;SDS011;14572;43.120;1.178;2023-02-03T09:20:19;8.83;;;3.83;;
26391;SDS011;14572;43.120;1.178;2023-02-03T09:22:47;7.73;;;3.93;;
26391;SDS011;14572;43.120;1.178;2023-02-03T09:25:14;7.27;;;4.17;;
26391;SDS011;14572;43.120;1.178;2023-02-03T09:27:43;10.17;;;4.13;;
26391;SDS011;14572;43.120;1.178;2023-02-03T09:30:10;8.67;;;4.13;;
26391;SDS011;14572;43.120;1.178;2023-02-03T09:32:38;8.40;;;3.93;;
26391;SDS011;14572;43.120;1.178;2023-02-03T09:35:05;25.90;;;11.67;;
26391;SDS011;14572;43.120;1.178;2023-02-03T09:37:33;13.47;;;5.73;;
26391;SDS011;14572;43.120;1.178;2023-02-03T09:40:00;22.60;;;9.13;;
26391;SDS011;14572;43.120;1.178;2023-02-03T09:42:40;36.93;;;16.17;;
26391;SDS011;14572;43.120;1.178;2023-02-03T09:45:29;13.40;;;4.80;;
26391;SDS011;14572;43.120;1.178;2023-02-03T09:47:57;9.53;;;3.37;;
26391;SDS011;14572;43.120;1.178;2023-02-03T09:50:28;7.03;;;2.63;;
26391;SDS011;14572;43.120;1.178;2023-02-03T09:52:57;8.17;;;2.07;;
26391;SDS011;14572;43.120;1.178;2023-02-03T09:55:26;13.77;;;2.55;;
26391;SDS011;14572;43.120;1.178;2023-02-03T09:57:57;7.75;;;2.20;;
26391;SDS011;14572;43.120;1.178;2023-02-03T10:00:27;10.43;;;2.00;;
26391;SDS011;14572;43.120;1.178;2023-02-03T10:02:58;10.88;;;2.10;;
26391;SDS011;14572;43.120;1.178;2023-02-03T10:05:37;7.05;;;2.53;;
26391;SDS011;14572;43.120;1.178;2023-02-03T10:08:17;5.75;;;2.33;;
26391;SDS011;14572;43.120;1.178;2023-02-03T10:10:52;8.18;;;2.03;;
26391;SDS011;14572;43.120;1.178;2023-02-03T10:13:35;6.47;;;1.92;;
26391;SDS011;14572;43.120;1.178;2023-02-03T10:16:22;8.32;;;2.20;;
26391;SDS011;14572;43.120;1.178;2023-02-03T10:19:00;8.38;;;2.03;;
26391;SDS011;14572;43.120;1.178;2023-02-03T10:21:31;6.20;;;1.90;;
26391;SDS011;14572;43.120;1.178;2023-02-03T10:24:02;6.28;;;1.58;;
26391;SDS011;14572;43.120;1.178;2023-02-03T10:26:35;7.22;;;1.90;;
26391;SDS011;14572;43.120;1.178;2023-02-03T10:29:04;7.85;;;1.83;;
26391;SDS011;14572;43.120;1.178;2023-02-03T10:31:35;8.35;;;2.33;;
26391;SDS011;14572;43.120;1.178;2023-02-03T10:34:07;8.60;;;3.08;;
26391;SDS011;14572;43.120;1.178;2023-02-03T10:36:39;13.55;;;2.55;;
26391;SDS011;14572;43.120;1.178;2023-02-03T10:39:16;5.60;;;1.70;;
26391;SDS011;14572;43.120;1.178;2023-02-03T10:41:45;4.78;;;1.98;;
26391;SDS011;14572;43.120;1.178;2023-02-03T10:44:12;8.30;;;2.13;;
26391;SDS011;14572;43.120;1.178;2023-02-03T10:46:42;6.55;;;1.83;;
26391;SDS011;14572;43.120;1.178;2023-02-03T10:49:10;6.80;;;2.15;;
26391;SDS011;14572;43.120;1.178;2023-02-03T10:51:39;7.22;;;1.75;;
26391;SDS011;14572;43.120;1.178;2023-02-03T10:54:14;6.10;;;1.77;;
26391;SDS011;14572;43.120;1.178;2023-02-03T10:56:53;9.50;;;2.25;;
26391;SDS011;14572;43.120;1.178;2023-02-03T10:59:24;7.78;;;1.88;;
26391;SDS011;14572;43.120;1.178;2023-02-03T11:01:55;10.40;;;2.38;;
26391;SDS011;14572;43.120;1.178;2023-02-03T11:04:23;8.50;;;1.88;;
26391;SDS011;14572;43.120;1.178;2023-02-03T11:06:52;11.77;;;1.95;;
26391;SDS011;14572;43.120;1.178;2023-02-03T11:09:22;9.55;;;1.83;;
26391;SDS011;14572;43.120;1.178;2023-02-03T11:14:43;8.13;;;1.50;;
26391;SDS011;14572;43.120;1.178;2023-02-03T11:17:15;7.10;;;1.27;;
26391;SDS011;14572;43.120;1.178;2023-02-03T11:19:43;7.78;;;1.55;;
26391;SDS011;14572;43.120;1.178;2023-02-03T11:22:12;7.93;;;1.92;;
26391;SDS011;14572;43.120;1.178;2023-02-03T11:24:40;6.65;;;1.88;;
26391;SDS011;14572;43.120;1.178;2023-02-03T11:27:10;6.65;;;1.52;;
26391;SDS011;14572;43.120;1.178;2023-02-03T11:29:39;11.07;;;1.50;;
26391;SDS011;14572;43.120;1.178;2023-02-03T11:32:13;8.65;;;1.67;;
26391;SDS011;14572;43.120;1.178;2023-02-03T11:34:45;6.32;;;1.40;;
26391;SDS011;14572;43.120;1.178;2023-02-03T11:37:25;5.22;;;1.40;;
26391;SDS011;14572;43.120;1.178;2023-02-03T11:40:01;7.72;;;1.70;;
26391;SDS011;14572;43.120;1.178;2023-02-03T11:42:40;5.70;;;1.10;;
26391;SDS011;14572;43.120;1.178;2023-02-03T11:45:12;7.55;;;1.40;;
26391;SDS011;14572;43.120;1.178;2023-02-03T11:47:44;7.60;;;1.15;;
26391;SDS011;14572;43.120;1.178;2023-02-03T11:50:20;6.72;;;1.40;;
26391;SDS011;14572;43.120;1.178;2023-02-03T11:53:03;6.50;;;1.10;;
26391;SDS011;14572;43.120;1.178;2023-02-03T11:55:44;6.85;;;1.48;;
26391;SDS011;14572;43.120;1.178;2023-02-03T12:01:22;7.50;;;1.65;;
26391;SDS011;14572;43.120;1.178;2023-02-03T12:07:05;3.47;;;1.08;;
26391;SDS011;14572;43.120;1.178;2023-02-03T12:09:47;4.03;;;1.15;;
26391;SDS011;14572;43.120;1.178;2023-02-03T12:12:35;6.28;;;1.00;;
26391;SDS011;14572;43.120;1.178;2023-02-03T12:15:15;5.28;;;1.23;;
26391;SDS011;14572;43.120;1.178;2023-02-03T12:18:01;5.88;;;1.30;;
26391;SDS011;14572;43.120;1.178;2023-02-03T12:20:46;6.13;;;1.40;;
26391;SDS011;14572;43.120;1.178;2023-02-03T12:26:22;12.43;;;2.30;;
26391;SDS011;14572;43.120;1.178;2023-02-03T12:28:53;5.28;;;1.23;;
26391;SDS011;14572;43.120;1.178;2023-02-03T12:31:26;7.00;;;1.33;;
26391;SDS011;14572;43.120;1.178;2023-02-03T12:34:00;4.93;;;1.20;;
26391;SDS011;14572;43.120;1.178;2023-02-03T12:36:32;4.15;;;1.30;;
26391;SDS011;14572;43.120;1.178;2023-02-03T12:39:06;5.38;;;1.13;;
26391;SDS011;14572;43.120;1.178;2023-02-03T12:45:22;5.30;;;0.90;;
26391;SDS011;14572;43.120;1.178;2023-02-03T12:47:53;4.25;;;1.13;;
26391;SDS011;14572;43.120;1.178;2023-02-03T12:50:22;5.15;;;1.10;;
26391;SDS011;14572;43.120;1.178;2023-02-03T12:52:53;4.55;;;1.10;;
26391;SDS011;14572;43.120;1.178;2023-02-03T12:55:26;3.33;;;0.95;;
26391;SDS011;14572;43.120;1.178;2023-02-03T12:57:57;4.05;;;1.08;;
26391;SDS011;14572;43.120;1.178;2023-02-03T13:00:32;4.28;;;1.50;;
26391;SDS011;14572;43.120;1.178;2023-02-03T13:03:08;3.35;;;1.08;;
26391;SDS011;14572;43.120;1.178;2023-02-03T13:05:44;4.30;;;1.48;;
26391;SDS011;14572;43.120;1.178;2023-02-03T13:08:17;4.35;;;0.90;;
26391;SDS011;14572;43.120;1.178;2023-02-03T13:10:52;4.80;;;1.10;;
26391;SDS011;14572;43.120;1.178;2023-02-03T13:13:23;2.03;;;0.88;;
26391;SDS011;14572;43.120;1.178;2023-02-03T13:15:55;6.97;;;1.30;;
26391;SDS011;14572;43.120;1.178;2023-02-03T13:18:24;4.80;;;1.20;;
26391;SDS011;14572;43.120;1.178;2023-02-03T13:20:53;3.50;;;1.20;;
26391;SDS011;14572;43.120;1.178;2023-02-03T13:23:21;4.82;;;1.30;;
26391;SDS011;14572;43.120;1.178;2023-02-03T13:25:52;5.20;;;1.40;;
26391;SDS011;14572;43.120;1.178;2023-02-03T13:28:56;4.93;;;1.35;;
26391;SDS011;14572;43.120;1.178;2023-02-03T13:31:35;3.60;;;1.17;;
26391;SDS011;14572;43.120;1.178;2023-02-03T13:34:17;4.50;;;1.40;;
26391;SDS011;14572;43.120;1.178;2023-02-03T13:39:52;4.72;;;1.40;;
26391;SDS011;14572;43.120;1.178;2023-02-03T13:42:28;7.85;;;1.48;;
26391;SDS011;14572;43.120;1.178;2023-02-03T13:44:57;5.88;;;1.50;;
26391;SDS011;14572;43.120;1.178;2023-02-03T13:47:29;6.07;;;1.60;;
26391;SDS011;14572;43.120;1.178;2023-02-03T13:49:57;4.65;;;1.50;;
26391;SDS011;14572;43.120;1.178;2023-02-03T13:52:32;4.70;;;1.45;;
26391;SDS011;14572;43.120;1.178;2023-02-03T13:55:00;6.60;;;1.63;;
26391;SDS011;14572;43.120;1.178;2023-02-03T13:57:33;9.40;;;1.80;;
26391;SDS011;14572;43.120;1.178;2023-02-03T14:00:02;5.43;;;2.00;;
26391;SDS011;14572;43.120;1.178;2023-02-03T14:02:41;5.32;;;1.67;;
26391;SDS011;14572;43.120;1.178;2023-02-03T14:27:17;8.68;;;2.72;;
26391;SDS011;14572;43.120;1.178;2023-02-03T14:29:53;7.15;;;2.58;;
26391;SDS011;14572;43.120;1.178;2023-02-03T14:32:40;8.95;;;2.78;;
26391;SDS011;14572;43.120;1.178;2023-02-03T14:35:14;9.95;;;3.25;;
26391;SDS011;14572;43.120;1.178;2023-02-03T14:37:49;10.25;;;2.70;;
26391;SDS011;14572;43.120;1.178;2023-02-03T14:40:20;10.88;;;3.30;;
26391;SDS011;14572;43.120;1.178;2023-02-03T14:45:50;9.98;;;3.72;;
26391;SDS011;14572;43.120;1.178;2023-02-03T14:48:30;10.32;;;3.55;;
26391;SDS011;14572;43.120;1.178;2023-02-03T14:51:07;9.82;;;3.67;;
26391;SDS011;14572;43.120;1.178;2023-02-03T14:53:57;9.68;;;3.30;;
26391;SDS011;14572;43.120;1.178;2023-02-03T14:56:32;9.10;;;3.05;;
26391;SDS011;14572;43.120;1.178;2023-02-03T14:59:22;9.48;;;2.80;;
26391;SDS011;14572;43.120;1.178;2023-02-03T15:02:08;7.15;;;3.38;;
26391;SDS011;14572;43.120;1.178;2023-02-03T15:04:40;8.40;;;3.00;;
26391;SDS011;14572;43.120;1.178;2023-02-03T15:07:09;11.57;;;3.38;;
26391;SDS011;14572;43.120;1.178;2023-02-03T15:09:59;10.05;;;3.42;;
26391;SDS011;14572;43.120;1.178;2023-02-03T15:12:26;8.95;;;2.53;;
26391;SDS011;14572;43.120;1.178;2023-02-03T15:17:55;9.23;;;2.40;;
26391;SDS011;14572;43.120;1.178;2023-02-03T15:20:29;8.88;;;2.25;;
26391;SDS011;14572;43.120;1.178;2023-02-03T15:22:59;8.75;;;2.38;;
26391;SDS011;14572;43.120;1.178;2023-02-03T15:25:27;8.98;;;2.40;;
26391;SDS011;14572;43.120;1.178;2023-02-03T15:28:09;11.73;;;2.08;;
26391;SDS011;14572;43.120;1.178;2023-02-03T15:30:37;8.30;;;2.33;;
26391;SDS011;14572;43.120;1.178;2023-02-03T15:33:06;10.25;;;2.55;;
26391;SDS011;14572;43.120;1.178;2023-02-03T15:35:37;10.63;;;2.72;;
26391;SDS011;14572;43.120;1.178;2023-02-03T15:38:06;6.18;;;2.47;;
26391;SDS011;14572;43.120;1.178;2023-02-03T15:40:36;8.73;;;2.70;;
26391;SDS011;14572;43.120;1.178;2023-02-03T15:43:08;8.63;;;2.97;;
26391;SDS011;14572;43.120;1.178;2023-02-03T15:45:51;9.27;;;3.30;;
26391;SDS011;14572;43.120;1.178;2023-02-03T15:48:25;13.27;;;3.03;;
26391;SDS011;14572;43.120;1.178;2023-02-03T15:50:55;10.05;;;2.65;;
26391;SDS011;14572;43.120;1.178;2023-02-03T15:53:25;11.48;;;2.70;;